sensor_id;sensor_type;location;lat;lon;timestamp;P1;durP1;ratioP1;P2;durP2;ratioP2
74259;SDS011;62630;55.874;37.516;2023-04-06T00:00:36;6.93;;;3.60;;
74259;SDS011;62630;55.874;37.516;2023-04-06T00:03:01;6.75;;;3.70;;
74259;SDS011;62630;55.874;37.516;2023-04-06T00:05:27;6.50;;;4.05;;
74259;SDS011;62630;55.874;37.516;2023-04-06T00:07:55;8.95;;;3.78;;
74259;SDS011;62630;55.874;37.516;2023-04-06T00:10:22;6.60;;;3.33;;
74259;SDS011;62630;55.874;37.516;2023-04-06T00:12:47;10.45;;;3.83;;
74259;SDS011;62630;55.874;37.516;2023-04-06T00:15:13;5.72;;;3.88;;
74259;SDS011;62630;55.874;37.516;2023-04-06T00:17:38;6.43;;;4.03;;
74259;SDS011;62630;55.874;37.516;2023-04-06T00:20:04;6.07;;;3.60;;
74259;SDS011;62630;55.874;37.516;2023-04-06T00:22:31;6.85;;;3.97;;
74259;SDS011;62630;55.874;37.516;2023-04-06T00:24:57;6.68;;;4.07;;
74259;SDS011;62630;55.874;37.516;2023-04-06T00:27:23;7.82;;;4.00;;
74259;SDS011;62630;55.874;37.516;2023-04-06T00:29:48;6.18;;;3.33;;
74259;SDS011;62630;55.874;37.516;2023-04-06T00:32:14;5.60;;;3.75;;
74259;SDS011;62630;55.874;37.516;2023-04-06T00:34:40;5.63;;;3.80;;
74259;SDS011;62630;55.874;37.516;2023-04-06T00:37:05;8.32;;;3.80;;
74259;SDS011;62630;55.874;37.516;2023-04-06T00:39:31;8.77;;;3.45;;
74259;SDS011;62630;55.874;37.516;2023-04-06T00:41:56;5.05;;;3.70;;
74259;SDS011;62630;55.874;37.516;2023-04-06T00:44:22;6.43;;;4.00;;
74259;SDS011;62630;55.874;37.516;2023-04-06T00:49:16;5.90;;;3.78;;
74259;SDS011;62630;55.874;37.516;2023-04-06T00:51:42;7.50;;;4.00;;
74259;SDS011;62630;55.874;37.516;2023-04-06T00:54:07;6.18;;;3.95;;
74259;SDS011;62630;55.874;37.516;2023-04-06T00:56:33;5.07;;;3.75;;
74259;SDS011;62630;55.874;37.516;2023-04-06T00:58:59;5.47;;;3.70;;
74259;SDS011;62630;55.874;37.516;2023-04-06T01:01:24;6.50;;;4.03;;
74259;SDS011;62630;55.874;37.516;2023-04-06T01:03:51;7.15;;;3.67;;
74259;SDS011;62630;55.874;37.516;2023-04-06T01:06:16;7.38;;;4.15;;
74259;SDS011;62630;55.874;37.516;2023-04-06T01:08:42;10.77;;;4.50;;
74259;SDS011;62630;55.874;37.516;2023-04-06T01:11:08;7.63;;;3.97;;
74259;SDS011;62630;55.874;37.516;2023-04-06T01:13:33;8.77;;;4.05;;
74259;SDS011;62630;55.874;37.516;2023-04-06T01:15:59;5.93;;;3.95;;
74259;SDS011;62630;55.874;37.516;2023-04-06T01:18:25;5.60;;;3.85;;
74259;SDS011;62630;55.874;37.516;2023-04-06T01:20:51;9.90;;;4.28;;
74259;SDS011;62630;55.874;37.516;2023-04-06T01:23:17;6.15;;;3.55;;
74259;SDS011;62630;55.874;37.516;2023-04-06T01:25:42;6.05;;;4.25;;
74259;SDS011;62630;55.874;37.516;2023-04-06T01:28:08;6.75;;;4.25;;
74259;SDS011;62630;55.874;37.516;2023-04-06T01:30:33;8.88;;;3.75;;
74259;SDS011;62630;55.874;37.516;2023-04-06T01:32:59;6.55;;;4.20;;
74259;SDS011;62630;55.874;37.516;2023-04-06T01:35:25;5.80;;;4.03;;
74259;SDS011;62630;55.874;37.516;2023-04-06T01:37:52;5.68;;;3.42;;
74259;SDS011;62630;55.874;37.516;2023-04-06T01:40:18;5.47;;;3.53;;
74259;SDS011;62630;55.874;37.516;2023-04-06T01:42:43;6.85;;;3.67;;
74259;SDS011;62630;55.874;37.516;2023-04-06T01:45:09;9.32;;;3.90;;
74259;SDS011;62630;55.874;37.516;2023-04-06T01:47:35;6.38;;;3.50;;
74259;SDS011;62630;55.874;37.516;2023-04-06T01:50:01;7.03;;;4.05;;
74259;SDS011;62630;55.874;37.516;2023-04-06T01:52:30;6.95;;;3.70;;
74259;SDS011;62630;55.874;37.516;2023-04-06T01:54:55;4.20;;;3.33;;
74259;SDS011;62630;55.874;37.516;2023-04-06T01:57:21;7.55;;;4.55;;
74259;SDS011;62630;55.874;37.516;2023-04-06T01:59:47;9.43;;;3.60;;
74259;SDS011;62630;55.874;37.516;2023-04-06T02:02:12;7.53;;;4.05;;
74259;SDS011;62630;55.874;37.516;2023-04-06T02:04:38;5.82;;;3.60;;
74259;SDS011;62630;55.874;37.516;2023-04-06T02:07:03;7.07;;;3.50;;
74259;SDS011;62630;55.874;37.516;2023-04-06T02:09:29;7.18;;;4.18;;
74259;SDS011;62630;55.874;37.516;2023-04-06T02:11:55;5.68;;;3.53;;
74259;SDS011;62630;55.874;37.516;2023-04-06T02:14:20;7.32;;;3.70;;
74259;SDS011;62630;55.874;37.516;2023-04-06T02:16:46;7.35;;;3.72;;
74259;SDS011;62630;55.874;37.516;2023-04-06T02:19:12;5.93;;;4.00;;
74259;SDS011;62630;55.874;37.516;2023-04-06T02:21:37;6.95;;;3.75;;
74259;SDS011;62630;55.874;37.516;2023-04-06T02:24:03;6.03;;;4.18;;
74259;SDS011;62630;55.874;37.516;2023-04-06T02:26:28;6.85;;;3.28;;
74259;SDS011;62630;55.874;37.516;2023-04-06T02:28:54;7.03;;;4.13;;
74259;SDS011;62630;55.874;37.516;2023-04-06T02:31:20;5.85;;;3.58;;
74259;SDS011;62630;55.874;37.516;2023-04-06T02:33:45;6.40;;;3.20;;
74259;SDS011;62630;55.874;37.516;2023-04-06T02:36:11;4.78;;;3.25;;
74259;SDS011;62630;55.874;37.516;2023-04-06T02:38:36;4.93;;;3.35;;
74259;SDS011;62630;55.874;37.516;2023-04-06T02:41:05;7.75;;;4.15;;
74259;SDS011;62630;55.874;37.516;2023-04-06T02:43:30;5.80;;;3.33;;
74259;SDS011;62630;55.874;37.516;2023-04-06T02:45:56;7.82;;;4.35;;
74259;SDS011;62630;55.874;37.516;2023-04-06T02:48:22;6.38;;;3.78;;
74259;SDS011;62630;55.874;37.516;2023-04-06T02:50:47;5.20;;;3.67;;
74259;SDS011;62630;55.874;37.516;2023-04-06T02:53:13;7.03;;;3.90;;
74259;SDS011;62630;55.874;37.516;2023-04-06T02:55:38;5.55;;;3.45;;
74259;SDS011;62630;55.874;37.516;2023-04-06T02:58:04;6.38;;;3.97;;
74259;SDS011;62630;55.874;37.516;2023-04-06T03:00:29;5.00;;;3.38;;
74259;SDS011;62630;55.874;37.516;2023-04-06T03:02:55;5.97;;;3.65;;
74259;SDS011;62630;55.874;37.516;2023-04-06T03:05:21;8.10;;;3.95;;
74259;SDS011;62630;55.874;37.516;2023-04-06T03:07:46;5.75;;;3.85;;
74259;SDS011;62630;55.874;37.516;2023-04-06T03:10:12;6.07;;;3.53;;
74259;SDS011;62630;55.874;37.516;2023-04-06T03:12:37;4.70;;;3.33;;
74259;SDS011;62630;55.874;37.516;2023-04-06T03:15:03;6.00;;;3.47;;
74259;SDS011;62630;55.874;37.516;2023-04-06T03:17:29;5.05;;;3.53;;
74259;SDS011;62630;55.874;37.516;2023-04-06T03:19:55;6.15;;;4.15;;
74259;SDS011;62630;55.874;37.516;2023-04-06T03:22:20;6.03;;;3.28;;
74259;SDS011;62630;55.874;37.516;2023-04-06T03:24:46;7.63;;;3.17;;
74259;SDS011;62630;55.874;37.516;2023-04-06T03:27:11;5.22;;;3.45;;
74259;SDS011;62630;55.874;37.516;2023-04-06T03:29:37;7.00;;;2.97;;
74259;SDS011;62630;55.874;37.516;2023-04-06T03:32:03;5.35;;;3.70;;
74259;SDS011;62630;55.874;37.516;2023-04-06T03:34:28;7.35;;;3.58;;
74259;SDS011;62630;55.874;37.516;2023-04-06T03:36:54;5.32;;;3.67;;
74259;SDS011;62630;55.874;37.516;2023-04-06T03:39:20;7.85;;;3.80;;
74259;SDS011;62630;55.874;37.516;2023-04-06T03:41:46;5.43;;;3.60;;
74259;SDS011;62630;55.874;37.516;2023-04-06T03:44:11;6.70;;;3.90;;
74259;SDS011;62630;55.874;37.516;2023-04-06T03:46:37;7.53;;;3.95;;
74259;SDS011;62630;55.874;37.516;2023-04-06T03:49:02;5.75;;;3.67;;
74259;SDS011;62630;55.874;37.516;2023-04-06T03:51:28;6.45;;;3.25;;
74259;SDS011;62630;55.874;37.516;2023-04-06T03:53:53;6.43;;;3.47;;
74259;SDS011;62630;55.874;37.516;2023-04-06T03:56:19;6.07;;;3.72;;
74259;SDS011;62630;55.874;37.516;2023-04-06T03:58:45;5.95;;;3.30;;
74259;SDS011;62630;55.874;37.516;2023-04-06T04:01:14;6.65;;;4.43;;
74259;SDS011;62630;55.874;37.516;2023-04-06T04:03:40;8.07;;;4.10;;
74259;SDS011;62630;55.874;37.516;2023-04-06T04:06:05;6.50;;;3.78;;
74259;SDS011;62630;55.874;37.516;2023-04-06T04:08:31;5.82;;;3.33;;
74259;SDS011;62630;55.874;37.516;2023-04-06T04:10:56;5.57;;;3.70;;
74259;SDS011;62630;55.874;37.516;2023-04-06T04:13:22;5.53;;;3.67;;
74259;SDS011;62630;55.874;37.516;2023-04-06T04:15:47;10.32;;;4.40;;
74259;SDS011;62630;55.874;37.516;2023-04-06T04:18:13;6.75;;;4.10;;
74259;SDS011;62630;55.874;37.516;2023-04-06T04:20:39;6.32;;;3.45;;
74259;SDS011;62630;55.874;37.516;2023-04-06T04:23:04;8.50;;;4.47;;
74259;SDS011;62630;55.874;37.516;2023-04-06T04:25:30;11.80;;;4.13;;
74259;SDS011;62630;55.874;37.516;2023-04-06T04:27:55;5.03;;;3.30;;
74259;SDS011;62630;55.874;37.516;2023-04-06T04:30:21;8.13;;;3.80;;
74259;SDS011;62630;55.874;37.516;2023-04-06T04:32:47;5.45;;;3.20;;
74259;SDS011;62630;55.874;37.516;2023-04-06T04:35:12;9.70;;;3.50;;
74259;SDS011;62630;55.874;37.516;2023-04-06T04:37:38;5.32;;;3.35;;
74259;SDS011;62630;55.874;37.516;2023-04-06T04:40:05;4.70;;;3.17;;
74259;SDS011;62630;55.874;37.516;2023-04-06T04:42:31;6.28;;;3.10;;
74259;SDS011;62630;55.874;37.516;2023-04-06T04:44:57;8.65;;;3.45;;
74259;SDS011;62630;55.874;37.516;2023-04-06T04:47:22;10.30;;;3.78;;
74259;SDS011;62630;55.874;37.516;2023-04-06T04:49:48;8.02;;;3.20;;
74259;SDS011;62630;55.874;37.516;2023-04-06T04:52:13;11.13;;;3.20;;
74259;SDS011;62630;55.874;37.516;2023-04-06T04:54:39;12.20;;;3.00;;
74259;SDS011;62630;55.874;37.516;2023-04-06T04:57:06;5.63;;;3.03;;
74259;SDS011;62630;55.874;37.516;2023-04-06T04:59:32;4.65;;;2.80;;
74259;SDS011;62630;55.874;37.516;2023-04-06T05:01:57;6.90;;;2.80;;
74259;SDS011;62630;55.874;37.516;2023-04-06T05:04:23;4.32;;;3.10;;
74259;SDS011;62630;55.874;37.516;2023-04-06T05:06:49;6.95;;;3.58;;
74259;SDS011;62630;55.874;37.516;2023-04-06T05:09:14;5.40;;;2.95;;
74259;SDS011;62630;55.874;37.516;2023-04-06T05:11:40;7.88;;;3.20;;
74259;SDS011;62630;55.874;37.516;2023-04-06T05:14:06;6.45;;;3.30;;
74259;SDS011;62630;55.874;37.516;2023-04-06T05:16:32;7.32;;;2.90;;
74259;SDS011;62630;55.874;37.516;2023-04-06T05:18:59;11.70;;;3.20;;
74259;SDS011;62630;55.874;37.516;2023-04-06T05:21:24;6.82;;;3.25;;
74259;SDS011;62630;55.874;37.516;2023-04-06T05:23:51;6.18;;;2.97;;
74259;SDS011;62630;55.874;37.516;2023-04-06T05:26:16;5.13;;;3.40;;
74259;SDS011;62630;55.874;37.516;2023-04-06T05:28:42;8.63;;;3.72;;
74259;SDS011;62630;55.874;37.516;2023-04-06T05:31:09;5.07;;;2.70;;
74259;SDS011;62630;55.874;37.516;2023-04-06T05:33:35;5.13;;;3.08;;
74259;SDS011;62630;55.874;37.516;2023-04-06T05:36:00;6.25;;;3.17;;
74259;SDS011;62630;55.874;37.516;2023-04-06T05:38:26;5.75;;;2.80;;
74259;SDS011;62630;55.874;37.516;2023-04-06T05:40:51;4.38;;;2.55;;
74259;SDS011;62630;55.874;37.516;2023-04-06T05:43:17;8.70;;;3.97;;
74259;SDS011;62630;55.874;37.516;2023-04-06T05:45:45;7.43;;;3.30;;
74259;SDS011;62630;55.874;37.516;2023-04-06T05:48:11;4.10;;;2.75;;
74259;SDS011;62630;55.874;37.516;2023-04-06T05:50:37;8.55;;;3.55;;
74259;SDS011;62630;55.874;37.516;2023-04-06T05:53:02;5.28;;;3.30;;
74259;SDS011;62630;55.874;37.516;2023-04-06T05:55:28;9.13;;;3.38;;
74259;SDS011;62630;55.874;37.516;2023-04-06T05:57:53;8.38;;;3.55;;
74259;SDS011;62630;55.874;37.516;2023-04-06T06:00:19;8.70;;;4.03;;
74259;SDS011;62630;55.874;37.516;2023-04-06T06:02:45;10.65;;;3.38;;
74259;SDS011;62630;55.874;37.516;2023-04-06T06:05:11;8.50;;;3.25;;
74259;SDS011;62630;55.874;37.516;2023-04-06T06:07:36;6.25;;;3.08;;
74259;SDS011;62630;55.874;37.516;2023-04-06T06:10:02;7.65;;;3.33;;
74259;SDS011;62630;55.874;37.516;2023-04-06T06:12:28;10.13;;;3.40;;
74259;SDS011;62630;55.874;37.516;2023-04-06T06:14:54;11.30;;;3.35;;
74259;SDS011;62630;55.874;37.516;2023-04-06T06:17:20;7.47;;;3.08;;
74259;SDS011;62630;55.874;37.516;2023-04-06T06:19:45;7.55;;;3.28;;
74259;SDS011;62630;55.874;37.516;2023-04-06T06:22:11;5.68;;;3.47;;
74259;SDS011;62630;55.874;37.516;2023-04-06T06:24:37;4.03;;;3.08;;
74259;SDS011;62630;55.874;37.516;2023-04-06T06:27:02;7.25;;;3.03;;
74259;SDS011;62630;55.874;37.516;2023-04-06T06:29:28;5.65;;;2.40;;
74259;SDS011;62630;55.874;37.516;2023-04-06T06:31:54;7.90;;;2.90;;
74259;SDS011;62630;55.874;37.516;2023-04-06T06:34:19;6.40;;;3.17;;
74259;SDS011;62630;55.874;37.516;2023-04-06T06:36:45;8.43;;;3.10;;
74259;SDS011;62630;55.874;37.516;2023-04-06T06:39:11;5.68;;;2.83;;
74259;SDS011;62630;55.874;37.516;2023-04-06T06:41:36;8.63;;;2.88;;
74259;SDS011;62630;55.874;37.516;2023-04-06T06:44:02;5.78;;;2.78;;
74259;SDS011;62630;55.874;37.516;2023-04-06T06:46:27;7.20;;;2.60;;
74259;SDS011;62630;55.874;37.516;2023-04-06T06:48:53;4.10;;;2.80;;
74259;SDS011;62630;55.874;37.516;2023-04-06T06:51:18;5.90;;;2.55;;
74259;SDS011;62630;55.874;37.516;2023-04-06T06:53:44;15.55;;;2.25;;
74259;SDS011;62630;55.874;37.516;2023-04-06T06:56:10;4.43;;;2.72;;
74259;SDS011;62630;55.874;37.516;2023-04-06T06:58:35;9.35;;;2.35;;
74259;SDS011;62630;55.874;37.516;2023-04-06T07:01:01;7.65;;;2.72;;
74259;SDS011;62630;55.874;37.516;2023-04-06T07:03:27;7.32;;;3.05;;
74259;SDS011;62630;55.874;37.516;2023-04-06T07:05:52;6.32;;;2.63;;
74259;SDS011;62630;55.874;37.516;2023-04-06T07:08:22;7.20;;;2.30;;
74259;SDS011;62630;55.874;37.516;2023-04-06T07:10:50;5.28;;;2.60;;
74259;SDS011;62630;55.874;37.516;2023-04-06T07:13:17;6.47;;;2.03;;
74259;SDS011;62630;55.874;37.516;2023-04-06T07:15:47;9.63;;;2.58;;
74259;SDS011;62630;55.874;37.516;2023-04-06T07:18:13;8.57;;;2.55;;
74259;SDS011;62630;55.874;37.516;2023-04-06T07:20:39;9.52;;;2.30;;
74259;SDS011;62630;55.874;37.516;2023-04-06T07:23:05;7.72;;;2.15;;
74259;SDS011;62630;55.874;37.516;2023-04-06T07:25:32;16.40;;;2.53;;
74259;SDS011;62630;55.874;37.516;2023-04-06T07:27:58;7.90;;;2.42;;
74259;SDS011;62630;55.874;37.516;2023-04-06T07:30:23;4.80;;;2.13;;
74259;SDS011;62630;55.874;37.516;2023-04-06T07:32:51;4.70;;;2.25;;
74259;SDS011;62630;55.874;37.516;2023-04-06T07:35:17;4.65;;;2.28;;
74259;SDS011;62630;55.874;37.516;2023-04-06T07:37:42;8.63;;;2.70;;
74259;SDS011;62630;55.874;37.516;2023-04-06T07:40:08;3.75;;;2.60;;
74259;SDS011;62630;55.874;37.516;2023-04-06T07:42:35;8.80;;;2.63;;
74259;SDS011;62630;55.874;37.516;2023-04-06T07:45:00;7.05;;;2.38;;
74259;SDS011;62630;55.874;37.516;2023-04-06T07:47:26;3.90;;;2.25;;
74259;SDS011;62630;55.874;37.516;2023-04-06T07:49:51;6.38;;;2.45;;
74259;SDS011;62630;55.874;37.516;2023-04-06T07:52:19;5.18;;;1.83;;
74259;SDS011;62630;55.874;37.516;2023-04-06T07:54:45;3.35;;;2.20;;
74259;SDS011;62630;55.874;37.516;2023-04-06T07:57:10;5.88;;;2.13;;
74259;SDS011;62630;55.874;37.516;2023-04-06T07:59:36;4.05;;;2.13;;
74259;SDS011;62630;55.874;37.516;2023-04-06T08:02:02;3.88;;;2.20;;
74259;SDS011;62630;55.874;37.516;2023-04-06T08:04:27;13.23;;;2.88;;
74259;SDS011;62630;55.874;37.516;2023-04-06T08:06:53;10.25;;;2.38;;
74259;SDS011;62630;55.874;37.516;2023-04-06T08:09:18;13.32;;;2.92;;
74259;SDS011;62630;55.874;37.516;2023-04-06T08:11:44;7.32;;;2.28;;
74259;SDS011;62630;55.874;37.516;2023-04-06T08:14:11;8.25;;;1.70;;
74259;SDS011;62630;55.874;37.516;2023-04-06T08:16:36;8.95;;;2.20;;
74259;SDS011;62630;55.874;37.516;2023-04-06T08:19:02;8.27;;;2.53;;
74259;SDS011;62630;55.874;37.516;2023-04-06T08:21:27;5.30;;;2.22;;
74259;SDS011;62630;55.874;37.516;2023-04-06T08:23:53;6.53;;;2.28;;
74259;SDS011;62630;55.874;37.516;2023-04-06T08:26:19;9.05;;;2.30;;
74259;SDS011;62630;55.874;37.516;2023-04-06T08:28:44;7.45;;;1.90;;
74259;SDS011;62630;55.874;37.516;2023-04-06T08:31:10;6.38;;;2.40;;
74259;SDS011;62630;55.874;37.516;2023-04-06T08:33:36;5.93;;;2.35;;
74259;SDS011;62630;55.874;37.516;2023-04-06T08:36:08;6.65;;;2.25;;
74259;SDS011;62630;55.874;37.516;2023-04-06T08:38:35;4.35;;;1.95;;
74259;SDS011;62630;55.874;37.516;2023-04-06T08:41:06;3.92;;;2.03;;
74259;SDS011;62630;55.874;37.516;2023-04-06T08:43:48;8.35;;;2.20;;
74259;SDS011;62630;55.874;37.516;2023-04-06T08:46:16;11.70;;;2.55;;
74259;SDS011;62630;55.874;37.516;2023-04-06T08:48:43;6.32;;;1.90;;
74259;SDS011;62630;55.874;37.516;2023-04-06T08:51:09;7.43;;;1.92;;
74259;SDS011;62630;55.874;37.516;2023-04-06T08:53:35;3.50;;;1.85;;
74259;SDS011;62630;55.874;37.516;2023-04-06T08:56:04;12.38;;;1.80;;
74259;SDS011;62630;55.874;37.516;2023-04-06T08:58:33;4.20;;;1.60;;
74259;SDS011;62630;55.874;37.516;2023-04-06T09:01:02;12.32;;;2.40;;
74259;SDS011;62630;55.874;37.516;2023-04-06T09:03:32;6.65;;;1.65;;
74259;SDS011;62630;55.874;37.516;2023-04-06T09:06:02;7.63;;;1.60;;
74259;SDS011;62630;55.874;37.516;2023-04-06T09:08:29;12.32;;;2.08;;
74259;SDS011;62630;55.874;37.516;2023-04-06T09:10:55;3.80;;;1.70;;
74259;SDS011;62630;55.874;37.516;2023-04-06T09:13:20;13.18;;;2.72;;
74259;SDS011;62630;55.874;37.516;2023-04-06T09:15:46;7.60;;;2.13;;
74259;SDS011;62630;55.874;37.516;2023-04-06T09:18:11;8.32;;;3.10;;
74259;SDS011;62630;55.874;37.516;2023-04-06T09:20:40;16.75;;;2.13;;
74259;SDS011;62630;55.874;37.516;2023-04-06T09:23:06;15.00;;;1.67;;
74259;SDS011;62630;55.874;37.516;2023-04-06T09:25:31;15.55;;;2.20;;
74259;SDS011;62630;55.874;37.516;2023-04-06T09:28:01;6.10;;;1.70;;
74259;SDS011;62630;55.874;37.516;2023-04-06T09:30:28;8.43;;;1.60;;
74259;SDS011;62630;55.874;37.516;2023-04-06T09:32:55;6.75;;;1.80;;
74259;SDS011;62630;55.874;37.516;2023-04-06T09:35:22;5.95;;;1.67;;
74259;SDS011;62630;55.874;37.516;2023-04-06T09:37:49;13.02;;;1.92;;
74259;SDS011;62630;55.874;37.516;2023-04-06T09:40:16;11.20;;;2.33;;
74259;SDS011;62630;55.874;37.516;2023-04-06T09:42:47;6.85;;;1.52;;
74259;SDS011;62630;55.874;37.516;2023-04-06T09:45:18;8.60;;;1.95;;
74259;SDS011;62630;55.874;37.516;2023-04-06T09:47:44;10.02;;;2.30;;
74259;SDS011;62630;55.874;37.516;2023-04-06T09:50:11;4.43;;;1.85;;
74259;SDS011;62630;55.874;37.516;2023-04-06T09:55:11;8.75;;;1.80;;
74259;SDS011;62630;55.874;37.516;2023-04-06T10:00:16;8.43;;;1.85;;
74259;SDS011;62630;55.874;37.516;2023-04-06T10:02:59;17.10;;;2.33;;
74259;SDS011;62630;55.874;37.516;2023-04-06T10:08:27;15.85;;;2.28;;
74259;SDS011;62630;55.874;37.516;2023-04-06T10:10:53;17.85;;;1.77;;
74259;SDS011;62630;55.874;37.516;2023-04-06T10:13:20;7.20;;;1.92;;
74259;SDS011;62630;55.874;37.516;2023-04-06T10:15:52;6.55;;;1.50;;
74259;SDS011;62630;55.874;37.516;2023-04-06T10:18:18;7.75;;;2.03;;
74259;SDS011;62630;55.874;37.516;2023-04-06T10:26:13;7.82;;;1.70;;
74259;SDS011;62630;55.874;37.516;2023-04-06T10:28:41;9.73;;;1.83;;
74259;SDS011;62630;55.874;37.516;2023-04-06T10:31:08;6.03;;;1.73;;
74259;SDS011;62630;55.874;37.516;2023-04-06T10:33:37;10.57;;;1.80;;
74259;SDS011;62630;55.874;37.516;2023-04-06T10:36:13;14.68;;;2.45;;
74259;SDS011;62630;55.874;37.516;2023-04-06T10:38:40;7.40;;;1.80;;
74259;SDS011;62630;55.874;37.516;2023-04-06T10:41:08;18.15;;;2.45;;
74259;SDS011;62630;55.874;37.516;2023-04-06T10:43:38;10.40;;;1.50;;
74259;SDS011;62630;55.874;37.516;2023-04-06T10:46:06;4.65;;;1.60;;
74259;SDS011;62630;55.874;37.516;2023-04-06T10:48:40;7.80;;;1.90;;
74259;SDS011;62630;55.874;37.516;2023-04-06T10:51:08;5.00;;;1.50;;
74259;SDS011;62630;55.874;37.516;2023-04-06T10:53:36;5.10;;;1.42;;
74259;SDS011;62630;55.874;37.516;2023-04-06T10:56:01;5.63;;;1.67;;
74259;SDS011;62630;55.874;37.516;2023-04-06T10:58:28;7.90;;;1.60;;
74259;SDS011;62630;55.874;37.516;2023-04-06T11:00:55;8.23;;;1.48;;
74259;SDS011;62630;55.874;37.516;2023-04-06T11:03:21;6.03;;;1.50;;
74259;SDS011;62630;55.874;37.516;2023-04-06T11:05:48;4.18;;;1.50;;
74259;SDS011;62630;55.874;37.516;2023-04-06T11:08:29;3.70;;;1.75;;
74259;SDS011;62630;55.874;37.516;2023-04-06T11:11:12;8.60;;;1.90;;
74259;SDS011;62630;55.874;37.516;2023-04-06T11:16:28;9.07;;;2.85;;
74259;SDS011;62630;55.874;37.516;2023-04-06T11:18:59;5.43;;;1.70;;
74259;SDS011;62630;55.874;37.516;2023-04-06T11:21:35;11.00;;;1.90;;
74259;SDS011;62630;55.874;37.516;2023-04-06T11:24:09;7.57;;;1.90;;
74259;SDS011;62630;55.874;37.516;2023-04-06T11:26:43;15.48;;;2.35;;
74259;SDS011;62630;55.874;37.516;2023-04-06T11:29:15;9.13;;;1.73;;
74259;SDS011;62630;55.874;37.516;2023-04-06T11:31:46;7.68;;;1.92;;
74259;SDS011;62630;55.874;37.516;2023-04-06T11:34:21;4.70;;;1.50;;
74259;SDS011;62630;55.874;37.516;2023-04-06T11:36:57;6.70;;;2.20;;
74259;SDS011;62630;55.874;37.516;2023-04-06T11:39:24;13.52;;;1.88;;
74259;SDS011;62630;55.874;37.516;2023-04-06T11:41:52;6.50;;;1.52;;
74259;SDS011;62630;55.874;37.516;2023-04-06T11:44:28;6.13;;;1.63;;
74259;SDS011;62630;55.874;37.516;2023-04-06T11:47:02;6.03;;;1.65;;
74259;SDS011;62630;55.874;37.516;2023-04-06T11:49:29;7.82;;;1.58;;
74259;SDS011;62630;55.874;37.516;2023-04-06T11:51:55;14.20;;;1.67;;
74259;SDS011;62630;55.874;37.516;2023-04-06T11:54:35;5.13;;;2.05;;
74259;SDS011;62630;55.874;37.516;2023-04-06T11:57:02;7.65;;;1.48;;
74259;SDS011;62630;55.874;37.516;2023-04-06T11:59:29;3.27;;;1.80;;
74259;SDS011;62630;55.874;37.516;2023-04-06T12:01:56;6.40;;;3.03;;
74259;SDS011;62630;55.874;37.516;2023-04-06T12:04:22;6.45;;;2.20;;
74259;SDS011;62630;55.874;37.516;2023-04-06T12:06:48;3.17;;;1.40;;
74259;SDS011;62630;55.874;37.516;2023-04-06T12:09:15;12.20;;;1.98;;
74259;SDS011;62630;55.874;37.516;2023-04-06T12:11:42;7.50;;;1.75;;
74259;SDS011;62630;55.874;37.516;2023-04-06T12:14:08;6.75;;;1.23;;
74259;SDS011;62630;55.874;37.516;2023-04-06T12:16:34;5.95;;;1.75;;
74259;SDS011;62630;55.874;37.516;2023-04-06T12:19:00;7.13;;;1.85;;
74259;SDS011;62630;55.874;37.516;2023-04-06T12:21:29;10.65;;;2.15;;
74259;SDS011;62630;55.874;37.516;2023-04-06T12:23:58;7.50;;;1.70;;
74259;SDS011;62630;55.874;37.516;2023-04-06T12:26:24;3.17;;;1.52;;
74259;SDS011;62630;55.874;37.516;2023-04-06T12:28:50;5.43;;;1.75;;
74259;SDS011;62630;55.874;37.516;2023-04-06T12:31:16;7.75;;;1.40;;
74259;SDS011;62630;55.874;37.516;2023-04-06T12:33:43;3.35;;;1.35;;
74259;SDS011;62630;55.874;37.516;2023-04-06T12:36:14;4.50;;;1.50;;
74259;SDS011;62630;55.874;37.516;2023-04-06T12:38:41;5.85;;;1.52;;
74259;SDS011;62630;55.874;37.516;2023-04-06T12:41:07;8.20;;;1.80;;
74259;SDS011;62630;55.874;37.516;2023-04-06T12:43:32;7.57;;;1.48;;
74259;SDS011;62630;55.874;37.516;2023-04-06T12:45:58;16.15;;;2.17;;
74259;SDS011;62630;55.874;37.516;2023-04-06T12:48:25;3.40;;;1.90;;
74259;SDS011;62630;55.874;37.516;2023-04-06T12:50:58;6.55;;;1.67;;
74259;SDS011;62630;55.874;37.516;2023-04-06T12:53:26;7.05;;;1.88;;
74259;SDS011;62630;55.874;37.516;2023-04-06T12:55:53;9.23;;;2.00;;
74259;SDS011;62630;55.874;37.516;2023-04-06T12:58:20;9.40;;;2.20;;
74259;SDS011;62630;55.874;37.516;2023-04-06T13:03:13;4.65;;;1.83;;
74259;SDS011;62630;55.874;37.516;2023-04-06T13:05:45;9.43;;;1.77;;
74259;SDS011;62630;55.874;37.516;2023-04-06T13:08:15;13.10;;;1.50;;
74259;SDS011;62630;55.874;37.516;2023-04-06T13:10:46;3.47;;;1.67;;
74259;SDS011;62630;55.874;37.516;2023-04-06T13:13:13;7.00;;;1.50;;
74259;SDS011;62630;55.874;37.516;2023-04-06T13:15:39;8.30;;;1.45;;
74259;SDS011;62630;55.874;37.516;2023-04-06T13:18:05;6.10;;;2.13;;
74259;SDS011;62630;55.874;37.516;2023-04-06T13:20:30;9.48;;;2.35;;
74259;SDS011;62630;55.874;37.516;2023-04-06T13:22:56;6.30;;;1.48;;
74259;SDS011;62630;55.874;37.516;2023-04-06T13:25:22;10.07;;;1.63;;
74259;SDS011;62630;55.874;37.516;2023-04-06T13:27:47;6.57;;;1.17;;
74259;SDS011;62630;55.874;37.516;2023-04-06T13:30:14;7.75;;;2.10;;
74259;SDS011;62630;55.874;37.516;2023-04-06T13:32:40;3.58;;;1.23;;
74259;SDS011;62630;55.874;37.516;2023-04-06T13:35:06;4.97;;;1.33;;
74259;SDS011;62630;55.874;37.516;2023-04-06T13:37:32;3.00;;;1.30;;
74259;SDS011;62630;55.874;37.516;2023-04-06T13:39:58;10.05;;;1.40;;
74259;SDS011;62630;55.874;37.516;2023-04-06T13:42:24;7.93;;;1.80;;
74259;SDS011;62630;55.874;37.516;2023-04-06T13:44:50;7.40;;;1.63;;
74259;SDS011;62630;55.874;37.516;2023-04-06T13:47:16;2.47;;;1.17;;
74259;SDS011;62630;55.874;37.516;2023-04-06T13:49:42;2.88;;;1.15;;
74259;SDS011;62630;55.874;37.516;2023-04-06T13:52:08;4.43;;;1.00;;
74259;SDS011;62630;55.874;37.516;2023-04-06T13:54:35;3.67;;;1.00;;
74259;SDS011;62630;55.874;37.516;2023-04-06T13:57:01;2.45;;;0.82;;
74259;SDS011;62630;55.874;37.516;2023-04-06T13:59:36;1.23;;;0.93;;
74259;SDS011;62630;55.874;37.516;2023-04-06T14:02:03;2.45;;;1.08;;
74259;SDS011;62630;55.874;37.516;2023-04-06T14:06:56;7.63;;;1.25;;
74259;SDS011;62630;55.874;37.516;2023-04-06T14:09:23;5.85;;;1.73;;
74259;SDS011;62630;55.874;37.516;2023-04-06T14:11:49;8.48;;;1.27;;
74259;SDS011;62630;55.874;37.516;2023-04-06T14:14:15;10.50;;;1.13;;
74259;SDS011;62630;55.874;37.516;2023-04-06T14:16:41;4.25;;;1.13;;
74259;SDS011;62630;55.874;37.516;2023-04-06T14:19:11;2.78;;;0.95;;
74259;SDS011;62630;55.874;37.516;2023-04-06T14:21:40;3.80;;;1.25;;
74259;SDS011;62630;55.874;37.516;2023-04-06T14:24:07;2.83;;;1.08;;
74259;SDS011;62630;55.874;37.516;2023-04-06T14:26:38;4.55;;;1.67;;
74259;SDS011;62630;55.874;37.516;2023-04-06T14:29:08;11.48;;;1.50;;
74259;SDS011;62630;55.874;37.516;2023-04-06T14:31:38;2.95;;;0.88;;
74259;SDS011;62630;55.874;37.516;2023-04-06T14:34:07;2.38;;;1.13;;
74259;SDS011;62630;55.874;37.516;2023-04-06T14:36:33;7.68;;;0.98;;
74259;SDS011;62630;55.874;37.516;2023-04-06T14:39:03;5.30;;;1.05;;
74259;SDS011;62630;55.874;37.516;2023-04-06T14:41:33;4.38;;;0.98;;
74259;SDS011;62630;55.874;37.516;2023-04-06T14:43:59;10.80;;;0.90;;
74259;SDS011;62630;55.874;37.516;2023-04-06T14:46:25;6.60;;;1.00;;
74259;SDS011;62630;55.874;37.516;2023-04-06T14:48:52;5.38;;;1.10;;
74259;SDS011;62630;55.874;37.516;2023-04-06T14:51:19;2.85;;;0.90;;
74259;SDS011;62630;55.874;37.516;2023-04-06T14:53:45;4.82;;;1.05;;